Time;durP1;ratioP1;P1;durP2;ratioP2;P2;SDS_P1;SDS_P2;PMS_P1;PMS_P2;Temp;Humidity;BMP_temperature;BMP_pressure;BME280_temperature;BME280_humidity;BME280_pressure;Samples;Min_cycle;Max_cycle;Signal;HPM_P1;HPM_P2
2021/08/02 00:00:09;;;;;;;;;1.67;1.67;;;;;;;;5120787;27;45301;-76
2021/08/02 00:02:49;;;;;;;;;3.67;3.67;;;;;;;;5121913;27;45304;-76
2021/08/02 00:05:15;;;;;;;;;4.00;4.00;;;;;;;;5122011;27;46643;-76
2021/08/02 00:07:41;;;;;;;;;1.00;1.00;;;;;;;;5120770;27;45890;-76
2021/08/02 00:10:11;;;;;;;;;6.33;4.33;;;;;;;;5122780;27;45279;-76
2021/08/02 00:12:41;;;;;;;;;3.00;3.00;;;;;;;;5122736;27;45472;-76
2021/08/02 00:17:44;;;;;;;;;2.67;2.00;;;;;;;;5139682;27;45402;-76
2021/08/02 00:20:11;;;;;;;;;3.00;3.00;;;;;;;;5139822;27;45270;-76
2021/08/02 00:22:36;;;;;;;;;4.00;4.00;;;;;;;;5139353;27;45286;-76
2021/08/02 00:25:02;;;;;;;;;4.00;4.00;;;;;;;;5139130;27;45175;-76
2021/08/02 00:27:28;;;;;;;;;2.67;2.67;;;;;;;;5139100;27;47593;-76
2021/08/02 00:29:53;;;;;;;;;4.00;4.00;;;;;;;;5143846;27;45144;-76
2021/08/02 00:32:18;;;;;;;;;3.33;3.33;;;;;;;;5160795;27;45222;-76
2021/08/02 00:34:43;;;;;;;;;3.00;3.00;;;;;;;;5158593;27;46193;-76
2021/08/02 00:37:14;;;;;;;;;3.00;3.00;;;;;;;;5159722;27;45271;-76
2021/08/02 00:39:45;;;;;;;;;2.67;2.67;;;;;;;;5159637;27;45222;-76
2021/08/02 00:42:13;;;;;;;;;4.67;4.33;;;;;;;;5159043;27;45318;-76
2021/08/02 00:44:44;;;;;;;;;3.00;3.00;;;;;;;;5159855;27;45213;-76
2021/08/02 00:47:11;;;;;;;;;4.00;4.00;;;;;;;;5157968;27;46419;-76
2021/08/02 00:49:39;;;;;;;;;3.00;3.00;;;;;;;;5159434;27;45330;-76
2021/08/02 00:52:05;;;;;;;;;3.67;3.67;;;;;;;;5158199;27;45267;-76
2021/08/02 00:54:31;;;;;;;;;4.00;4.00;;;;;;;;5158963;27;45689;-77
2021/08/02 00:56:58;;;;;;;;;4.33;3.67;;;;;;;;5159145;27;45007;-76
2021/08/02 00:59:24;;;;;;;;;3.67;3.67;;;;;;;;5157607;27;45639;-76
2021/08/02 01:01:50;;;;;;;;;5.00;4.00;;;;;;;;5159386;27;45296;-76
2021/08/02 01:04:17;;;;;;;;;3.00;3.00;;;;;;;;5159123;27;45297;-76
2021/08/02 01:06:44;;;;;;;;;4.00;4.00;;;;;;;;5159312;27;45334;-76
2021/08/02 01:09:12;;;;;;;;;4.33;4.33;;;;;;;;5157564;27;45685;-76
2021/08/02 01:11:38;;;;;;;;;5.33;4.67;;;;;;;;5159071;27;45238;-76
2021/08/02 01:14:06;;;;;;;;;5.00;4.00;;;;;;;;5159006;27;45346;-76
2021/08/02 01:16:32;;;;;;;;;4.00;4.00;;;;;;;;5158443;27;47389;-76
2021/08/02 01:18:58;;;;;;;;;4.67;3.33;;;;;;;;5158712;27;45300;-76
2021/08/02 01:21:25;;;;;;;;;4.67;4.67;;;;;;;;5157448;27;45333;-76
2021/08/02 01:23:50;;;;;;;;;3.33;3.33;;;;;;;;5158673;27;45544;-76
2021/08/02 01:26:34;;;;;;;;;7.67;5.00;;;;;;;;5158603;27;45285;-76
2021/08/02 01:29:18;;;;;;;;;4.33;3.33;;;;;;;;5145098;27;45190;-76
2021/08/02 01:31:43;;;;;;;;;6.00;5.00;;;;;;;;5103371;27;45240;-76
2021/08/02 01:34:09;;;;;;;;;7.00;6.00;;;;;;;;5103196;27;45474;-76
2021/08/02 01:36:34;;;;;;;;;4.00;4.00;;;;;;;;5102834;27;45255;-76
2021/08/02 01:39:00;;;;;;;;;5.00;5.00;;;;;;;;5103103;27;45205;-76
2021/08/02 01:41:26;;;;;;;;;6.00;6.00;;;;;;;;5102063;27;45291;-76
2021/08/02 01:43:51;;;;;;;;;7.67;6.00;;;;;;;;5103012;27;45986;-76
2021/08/02 01:46:21;;;;;;;;;6.00;5.00;;;;;;;;5102998;27;45266;-76
2021/08/02 01:48:52;;;;;;;;;5.67;5.67;;;;;;;;5101599;27;45293;-76
2021/08/02 01:51:26;;;;;;;;;4.67;4.67;;;;;;;;5103102;27;45232;-76
2021/08/02 01:53:54;;;;;;;;;4.00;4.00;;;;;;;;5101238;27;46507;-76
2021/08/02 01:56:25;;;;;;;;;4.00;4.00;;;;;;;;5102646;27;45257;-77
2021/08/02 01:59:07;;;;;;;;;5.00;5.00;;;;;;;;5103020;27;45258;-76
2021/08/02 02:01:34;;;;;;;;;6.67;6.33;;;;;;;;5102996;27;45325;-76
2021/08/02 02:04:02;;;;;;;;;5.33;5.33;;;;;;;;5101801;27;46210;-76
2021/08/02 02:06:32;;;;;;;;;5.00;5.00;;;;;;;;5102853;27;45271;-76
2021/08/02 02:09:03;;;;;;;;;3.00;3.00;;;;;;;;5102944;27;45401;-76
2021/08/02 02:11:30;;;;;;;;;3.00;3.00;;;;;;;;5102975;27;45352;-76
2021/08/02 02:14:01;;;;;;;;;4.00;4.00;;;;;;;;5102559;27;45389;-76
2021/08/02 02:16:28;;;;;;;;;4.00;4.00;;;;;;;;5102210;27;46141;-76
2021/08/02 02:18:54;;;;;;;;;5.00;5.00;;;;;;;;5102566;27;45319;-76
2021/08/02 02:21:22;;;;;;;;;4.67;4.67;;;;;;;;5102524;27;45289;-76
2021/08/02 02:23:48;;;;;;;;;5.00;5.00;;;;;;;;5102302;27;45443;-76
2021/08/02 02:26:14;;;;;;;;;7.33;6.00;;;;;;;;5101111;27;48309;-76
2021/08/02 02:28:39;;;;;;;;;5.00;5.00;;;;;;;;5102481;27;45291;-76
2021/08/02 02:31:06;;;;;;;;;4.67;4.67;;;;;;;;5133125;27;45471;-76
2021/08/02 02:33:32;;;;;;;;;5.67;5.00;;;;;;;;5144350;27;45220;-76
2021/08/02 02:35:59;;;;;;;;;5.00;5.00;;;;;;;;5143919;27;46047;-76
2021/08/02 02:38:24;;;;;;;;;6.33;5.67;;;;;;;;5143907;27;45515;-76
2021/08/02 02:40:49;;;;;;;;;4.33;4.00;;;;;;;;5143512;27;45331;-76
2021/08/02 02:43:15;;;;;;;;;4.33;4.33;;;;;;;;5144381;27;45390;-76
2021/08/02 02:45:41;;;;;;;;;4.67;4.67;;;;;;;;5144010;27;45514;-75
2021/08/02 02:48:07;;;;;;;;;4.00;4.00;;;;;;;;5142587;27;45316;-76
2021/08/02 02:50:36;;;;;;;;;4.00;4.00;;;;;;;;5144278;27;45347;-76
2021/08/02 02:53:02;;;;;;;;;5.00;5.00;;;;;;;;5143943;27;45454;-75
2021/08/02 02:55:29;;;;;;;;;4.00;4.00;;;;;;;;5143745;27;46272;-76
2021/08/02 02:57:54;;;;;;;;;4.00;4.00;;;;;;;;5144295;27;45350;-76
2021/08/02 03:00:20;;;;;;;;;4.33;4.33;;;;;;;;5142114;27;45279;-75
2021/08/02 03:02:46;;;;;;;;;5.00;5.00;;;;;;;;5141965;27;47130;-76
2021/08/02 03:05:11;;;;;;;;;5.67;5.67;;;;;;;;5143287;27;47796;-76
2021/08/02 03:07:38;;;;;;;;;5.00;4.67;;;;;;;;5142904;27;45270;-76
2021/08/02 03:10:03;;;;;;;;;6.67;5.00;;;;;;;;5143705;27;45520;-76
2021/08/02 03:12:30;;;;;;;;;4.67;4.67;;;;;;;;5143810;27;45200;-75
2021/08/02 03:14:56;;;;;;;;;6.00;6.00;;;;;;;;5141901;27;47165;-76
2021/08/02 03:17:21;;;;;;;;;3.00;3.00;;;;;;;;5141761;27;45213;-76
2021/08/02 03:19:46;;;;;;;;;7.00;6.67;;;;;;;;5143449;27;45135;-76
2021/08/02 03:22:24;;;;;;;;;5.00;4.00;;;;;;;;5143189;27;45299;-76
2021/08/02 03:25:02;;;;;;;;;5.67;4.00;;;;;;;;5142751;27;45359;-77
2021/08/02 03:27:28;;;;;;;;;5.00;5.00;;;;;;;;5143126;27;45312;-76
2021/08/02 03:29:58;;;;;;;;;6.00;6.00;;;;;;;;5137749;27;45300;-77
2021/08/02 03:32:24;;;;;;;;;7.33;7.00;;;;;;;;5122251;27;45467;-76
2021/08/02 03:34:51;;;;;;;;;6.00;6.00;;;;;;;;5120880;27;47643;-76
2021/08/02 03:37:17;;;;;;;;;4.00;4.00;;;;;;;;5122073;27;45262;-76
2021/08/02 03:39:44;;;;;;;;;6.33;6.00;;;;;;;;5122271;27;45257;-76
2021/08/02 03:42:11;;;;;;;;;4.00;4.00;;;;;;;;5120589;27;46271;-76
2021/08/02 03:44:37;;;;;;;;;4.67;4.67;;;;;;;;5120548;27;48317;-76
2021/08/02 03:47:02;;;;;;;;;7.00;5.67;;;;;;;;5122175;27;45157;-76
2021/08/02 03:49:28;;;;;;;;;5.67;5.00;;;;;;;;5121966;27;45401;-76
2021/08/02 03:51:55;;;;;;;;;4.00;4.00;;;;;;;;5122899;27;45218;-76
2021/08/02 03:54:20;;;;;;;;;7.00;6.00;;;;;;;;5123146;27;45494;-76
2021/08/02 03:56:46;;;;;;;;;5.00;5.00;;;;;;;;5124260;27;45310;-76
2021/08/02 03:59:12;;;;;;;;;5.00;5.00;;;;;;;;5124865;27;44690;-76
2021/08/02 04:01:38;;;;;;;;;5.33;5.00;;;;;;;;5125144;27;45273;-76
2021/08/02 04:04:04;;;;;;;;;4.33;4.00;;;;;;;;5125224;27;45261;-76
2021/08/02 04:06:29;;;;;;;;;5.67;5.67;;;;;;;;5122321;27;45719;-76
2021/08/02 04:08:54;;;;;;;;;4.00;4.00;;;;;;;;5124565;27;45152;-75
2021/08/02 04:11:19;;;;;;;;;4.00;4.00;;;;;;;;5122315;27;47315;-76
2021/08/02 04:13:45;;;;;;;;;6.67;5.67;;;;;;;;5123451;27;45459;-76
2021/08/02 04:16:10;;;;;;;;;4.00;4.00;;;;;;;;5122832;27;45386;-76
2021/08/02 04:18:35;;;;;;;;;7.00;7.00;;;;;;;;5123398;27;45293;-77
2021/08/02 04:21:00;;;;;;;;;5.00;5.00;;;;;;;;5124930;27;45321;-76
2021/08/02 04:23:25;;;;;;;;;6.00;6.00;;;;;;;;5121941;27;48112;-76
2021/08/02 04:25:51;;;;;;;;;4.33;3.33;;;;;;;;5124106;27;45388;-76
2021/08/02 04:28:16;;;;;;;;;7.00;6.00;;;;;;;;5126472;27;45209;-76
2021/08/02 04:30:41;;;;;;;;;6.00;4.00;;;;;;;;5138581;27;45509;-76
2021/08/02 04:33:07;;;;;;;;;6.00;5.00;;;;;;;;5145582;27;46213;-76
2021/08/02 04:35:32;;;;;;;;;5.00;5.00;;;;;;;;5145896;27;45224;-76
2021/08/02 04:37:57;;;;;;;;;6.00;6.00;;;;;;;;5143852;27;45650;-76
2021/08/02 04:40:22;;;;;;;;;5.67;5.67;;;;;;;;5146476;27;45208;-76
2021/08/02 04:42:48;;;;;;;;;6.67;6.67;;;;;;;;5147150;27;45301;-76
2021/08/02 04:45:13;;;;;;;;;6.67;6.67;;;;;;;;5147317;27;44607;-76
2021/08/02 04:47:39;;;;;;;;;5.67;5.33;;;;;;;;5146610;27;45217;-76
2021/08/02 04:50:04;;;;;;;;;7.33;7.33;;;;;;;;5149690;27;45337;-75
2021/08/02 04:52:29;;;;;;;;;7.67;6.00;;;;;;;;5150751;27;46459;-76
2021/08/02 04:54:56;;;;;;;;;7.67;7.67;;;;;;;;5148116;27;45300;-77
2021/08/02 04:57:21;;;;;;;;;7.00;7.00;;;;;;;;5151580;27;45234;-76
2021/08/02 04:59:46;;;;;;;;;8.67;5.33;;;;;;;;5150916;27;45319;-76
2021/08/02 05:02:12;;;;;;;;;7.00;7.00;;;;;;;;5149223;27;46587;-76
2021/08/02 05:04:37;;;;;;;;;5.00;5.00;;;;;;;;5152834;27;45264;-76
2021/08/02 05:07:02;;;;;;;;;6.67;6.67;;;;;;;;5153689;27;45264;-75
2021/08/02 05:09:27;;;;;;;;;7.67;6.67;;;;;;;;5151407;27;45260;-77
2021/08/02 05:11:53;;;;;;;;;7.67;6.00;;;;;;;;5150643;27;45440;-76
2021/08/02 05:14:18;;;;;;;;;9.67;7.00;;;;;;;;5151939;27;45333;-76
2021/08/02 05:16:46;;;;;;;;;6.00;6.00;;;;;;;;5153646;27;44693;-76
2021/08/02 05:19:11;;;;;;;;;8.00;8.00;;;;;;;;5154541;27;45208;-76
2021/08/02 05:21:37;;;;;;;;;6.00;5.67;;;;;;;;5152748;27;45145;-76
2021/08/02 05:24:02;;;;;;;;;6.67;6.67;;;;;;;;5152352;27;45218;-76
2021/08/02 05:26:27;;;;;;;;;6.00;6.00;;;;;;;;5155926;27;44732;-76
2021/08/02 05:28:52;;;;;;;;;5.67;5.67;;;;;;;;5152493;27;46964;-76
2021/08/02 05:31:18;;;;;;;;;6.67;6.00;;;;;;;;5134167;27;45282;-76
2021/08/02 05:33:43;;;;;;;;;7.67;7.00;;;;;;;;5130049;27;44590;-76
2021/08/02 05:36:08;;;;;;;;;8.33;7.33;;;;;;;;5131161;27;45208;-76
2021/08/02 05:38:33;;;;;;;;;6.33;6.33;;;;;;;;5132009;27;46160;-76
2021/08/02 05:40:59;;;;;;;;;7.67;7.67;;;;;;;;5130860;27;45270;-75
2021/08/02 05:43:25;;;;;;;;;6.33;6.00;;;;;;;;5126824;27;45311;-76
2021/08/02 05:45:50;;;;;;;;;11.00;9.00;;;;;;;;5127543;27;45435;-76
2021/08/02 05:48:15;;;;;;;;;6.67;6.67;;;;;;;;5128442;27;45291;-77
2021/08/02 05:50:40;;;;;;;;;9.67;8.67;;;;;;;;5128248;27;45308;-76
2021/08/02 05:53:06;;;;;;;;;10.67;10.00;;;;;;;;5129174;27;45341;-76
2021/08/02 05:55:31;;;;;;;;;10.00;10.00;;;;;;;;5128305;27;45248;-76
2021/08/02 05:57:56;;;;;;;;;12.33;11.00;;;;;;;;5126195;27;45515;-76
2021/08/02 06:00:22;;;;;;;;;8.00;7.33;;;;;;;;5123386;27;48233;-76
2021/08/02 06:02:48;;;;;;;;;13.00;13.00;;;;;;;;5124454;27;45306;-76
2021/08/02 06:05:13;;;;;;;;;13.33;12.00;;;;;;;;5126464;27;45302;-76
2021/08/02 06:07:41;;;;;;;;;13.33;13.00;;;;;;;;5125684;27;45400;-77
2021/08/02 06:10:07;;;;;;;;;14.00;12.33;;;;;;;;5123942;27;46078;-76
2021/08/02 06:12:32;;;;;;;;;15.67;12.33;;;;;;;;5123906;27;45219;-77
2021/08/02 06:14:57;;;;;;;;;13.00;13.00;;;;;;;;5122592;27;45289;-77
2021/08/02 06:17:23;;;;;;;;;11.00;10.67;;;;;;;;5121875;27;46338;-76
2021/08/02 06:19:48;;;;;;;;;12.67;12.67;;;;;;;;5123289;27;46216;-76
2021/08/02 06:22:13;;;;;;;;;13.00;12.00;;;;;;;;5123644;27;45284;-77
2021/08/02 06:24:38;;;;;;;;;11.33;11.33;;;;;;;;5123364;27;45196;-76
2021/08/02 06:27:04;;;;;;;;;12.00;11.67;;;;;;;;5122381;27;46615;-76
2021/08/02 06:29:29;;;;;;;;;10.00;8.67;;;;;;;;5124876;27;45405;-76
2021/08/02 06:31:54;;;;;;;;;15.00;12.33;;;;;;;;5143035;27;45318;-76
2021/08/02 06:34:19;;;;;;;;;10.00;9.33;;;;;;;;5143201;27;45304;-76
2021/08/02 06:36:44;;;;;;;;;11.00;10.67;;;;;;;;5142530;27;45908;-76
2021/08/02 06:39:10;;;;;;;;;8.00;8.00;;;;;;;;5143984;27;46603;-75
2021/08/02 06:41:35;;;;;;;;;10.00;8.67;;;;;;;;5143894;27;45356;-76
2021/08/02 06:44:00;;;;;;;;;9.67;9.67;;;;;;;;5144577;27;45364;-76
2021/08/02 06:46:25;;;;;;;;;10.00;10.00;;;;;;;;5144333;27;45270;-76
2021/08/02 06:48:50;;;;;;;;;10.00;10.00;;;;;;;;5144276;27;46477;-76
2021/08/02 06:51:18;;;;;;;;;12.33;10.33;;;;;;;;5144451;27;45276;-77
2021/08/02 06:53:43;;;;;;;;;6.67;6.67;;;;;;;;5143704;27;45327;-76
2021/08/02 06:56:08;;;;;;;;;9.00;9.00;;;;;;;;5143607;27;45256;-76
2021/08/02 06:58:34;;;;;;;;;8.00;7.00;;;;;;;;5143487;27;46336;-76
2021/08/02 07:00:59;;;;;;;;;7.00;7.00;;;;;;;;5143507;27;45219;-76
2021/08/02 07:03:24;;;;;;;;;7.00;7.00;;;;;;;;5143440;27;45248;-76
2021/08/02 07:05:49;;;;;;;;;8.33;8.00;;;;;;;;5142624;27;47126;-76
2021/08/02 07:08:15;;;;;;;;;10.00;8.33;;;;;;;;5144419;27;45464;-76
2021/08/02 07:10:40;;;;;;;;;11.33;10.67;;;;;;;;5144382;27;45245;-76
2021/08/02 07:13:05;;;;;;;;;8.33;8.33;;;;;;;;5142073;27;45255;-76
2021/08/02 07:15:30;;;;;;;;;9.00;9.00;;;;;;;;5142736;27;45151;-76
2021/08/02 07:17:56;;;;;;;;;10.33;10.33;;;;;;;;5141523;27;47255;-76
2021/08/02 07:20:21;;;;;;;;;8.67;8.67;;;;;;;;5141890;27;45322;-76
2021/08/02 07:22:46;;;;;;;;;10.00;7.67;;;;;;;;5142864;27;45195;-76
2021/08/02 07:25:13;;;;;;;;;9.33;8.67;;;;;;;;5140788;27;46244;-76
2021/08/02 07:27:39;;;;;;;;;10.00;9.00;;;;;;;;5143377;27;46146;-76
2021/08/02 07:30:05;;;;;;;;;10.67;9.67;;;;;;;;5135878;27;45280;-76
2021/08/02 07:32:30;;;;;;;;;11.00;7.00;;;;;;;;5122381;27;45313;-76
2021/08/02 07:34:55;;;;;;;;;13.33;9.33;;;;;;;;5121782;27;45625;-76
2021/08/02 07:37:20;;;;;;;;;14.00;10.00;;;;;;;;5121813;27;45436;-77
2021/08/02 07:39:46;;;;;;;;;7.33;6.67;;;;;;;;5122001;27;45334;-76
2021/08/02 07:42:11;;;;;;;;;9.00;8.33;;;;;;;;5122615;27;45242;-76
2021/08/02 07:44:36;;;;;;;;;10.33;7.67;;;;;;;;5121616;27;45359;-76
2021/08/02 07:47:01;;;;;;;;;8.67;7.00;;;;;;;;5121487;27;45526;-76
2021/08/02 07:49:27;;;;;;;;;9.67;8.67;;;;;;;;5120303;27;45953;-76
2021/08/02 07:51:52;;;;;;;;;7.00;6.33;;;;;;;;5121803;27;45242;-76
2021/08/02 07:54:17;;;;;;;;;9.00;9.00;;;;;;;;5121284;27;46126;-76
2021/08/02 07:56:42;;;;;;;;;9.00;9.00;;;;;;;;5120067;27;47332;-76
2021/08/02 07:59:07;;;;;;;;;10.00;8.00;;;;;;;;5121101;27;45288;-76
2021/08/02 08:01:33;;;;;;;;;9.33;9.00;;;;;;;;5121573;27;45283;-76
2021/08/02 08:03:58;;;;;;;;;9.67;9.00;;;;;;;;5121500;27;45311;-76
2021/08/02 08:06:23;;;;;;;;;10.00;8.00;;;;;;;;5121312;27;45309;-77
2021/08/02 08:08:49;;;;;;;;;8.00;8.00;;;;;;;;5120041;27;45307;-76
2021/08/02 08:11:14;;;;;;;;;12.33;7.67;;;;;;;;5123632;27;45261;-77
2021/08/02 08:13:39;;;;;;;;;8.33;8.00;;;;;;;;5122120;27;45244;-76
2021/08/02 08:16:05;;;;;;;;;9.33;9.33;;;;;;;;5122319;27;45506;-76
2021/08/02 08:18:31;;;;;;;;;7.00;7.00;;;;;;;;5120771;27;45239;-76
2021/08/02 08:20:58;;;;;;;;;3.67;3.67;;;;;;;;5120904;27;45667;-75
2021/08/02 08:23:24;;;;;;;;;4.67;4.00;;;;;;;;5121110;27;45662;-75
2021/08/02 08:25:49;;;;;;;;;11.00;9.33;;;;;;;;5122109;27;45308;-77
2021/08/02 08:28:14;;;;;;;;;7.67;7.67;;;;;;;;5120037;27;45284;-76
2021/08/02 08:30:39;;;;;;;;;9.33;9.33;;;;;;;;5132604;27;45235;-75
2021/08/02 08:33:05;;;;;;;;;13.00;11.00;;;;;;;;5141600;27;45478;-76
2021/08/02 08:35:30;;;;;;;;;6.67;6.00;;;;;;;;5140447;27;47253;-75
2021/08/02 08:37:55;;;;;;;;;9.00;9.00;;;;;;;;5142853;27;45251;-76
2021/08/02 08:40:21;;;;;;;;;6.00;6.00;;;;;;;;5146437;27;45255;-76
2021/08/02 08:42:47;;;;;;;;;5.67;5.67;;;;;;;;5145423;27;45286;-75
2021/08/02 08:45:12;;;;;;;;;11.00;11.00;;;;;;;;5145071;27;46008;-75
2021/08/02 08:47:37;;;;;;;;;10.00;8.33;;;;;;;;5145186;27;45242;-76
2021/08/02 08:50:04;;;;;;;;;9.33;8.33;;;;;;;;5145223;27;45484;-76
2021/08/02 08:52:32;;;;;;;;;7.67;7.67;;;;;;;;5144831;27;45250;-76
2021/08/02 08:54:57;;;;;;;;;4.33;4.33;;;;;;;;5145241;27;45623;-75
2021/08/02 08:57:23;;;;;;;;;6.00;6.00;;;;;;;;5145276;27;45152;-76
2021/08/02 08:59:49;;;;;;;;;6.00;6.00;;;;;;;;5145343;27;45359;-76
2021/08/02 09:02:15;;;;;;;;;7.33;6.33;;;;;;;;5145757;27;45305;-76
2021/08/02 09:04:50;;;;;;;;;6.67;4.33;;;;;;;;5143539;27;48123;-75
2021/08/02 09:07:15;;;;;;;;;7.00;7.00;;;;;;;;5148399;27;45311;-78
2021/08/02 09:09:40;;;;;;;;;8.00;7.00;;;;;;;;5145866;27;45254;-76
2021/08/02 09:12:07;;;;;;;;;7.00;6.67;;;;;;;;5145571;27;47235;-76
2021/08/02 09:14:32;;;;;;;;;7.00;7.00;;;;;;;;5143811;27;46857;-74
2021/08/02 09:17:00;;;;;;;;;8.67;7.33;;;;;;;;5143556;27;45335;-76
2021/08/02 09:19:25;;;;;;;;;6.33;6.33;;;;;;;;5146508;27;45429;-76
2021/08/02 09:21:52;;;;;;;;;8.33;7.33;;;;;;;;5145182;27;45461;-77
2021/08/02 09:24:30;;;;;;;;;7.67;6.00;;;;;;;;5144229;27;47272;-75
2021/08/02 09:26:55;;;;;;;;;5.00;5.00;;;;;;;;5145125;27;45340;-75
2021/08/02 09:29:33;;;;;;;;;6.33;6.33;;;;;;;;5148699;27;44656;-75
2021/08/02 09:32:00;;;;;;;;;6.00;6.00;;;;;;;;5125434;27;45458;-76
2021/08/02 09:34:26;;;;;;;;;5.00;5.00;;;;;;;;5126700;27;45490;-75
2021/08/02 09:36:57;;;;;;;;;4.67;4.00;;;;;;;;5128353;27;45291;-76
2021/08/02 09:39:27;;;;;;;;;5.00;5.00;;;;;;;;5124132;27;45379;-75
2021/08/02 09:42:00;;;;;;;;;6.67;6.67;;;;;;;;5126834;27;45244;-76
2021/08/02 09:44:25;;;;;;;;;7.00;7.00;;;;;;;;5126934;27;46287;-76
2021/08/02 09:46:55;;;;;;;;;7.00;7.00;;;;;;;;5131661;27;44587;-75
2021/08/02 09:49:20;;;;;;;;;7.67;7.67;;;;;;;;5129638;27;45316;-75
2021/08/02 09:51:45;;;;;;;;;4.00;3.33;;;;;;;;5123920;27;47140;-75
2021/08/02 09:54:21;;;;;;;;;5.67;4.33;;;;;;;;5124785;27;45246;-75
2021/08/02 09:56:49;;;;;;;;;4.00;4.00;;;;;;;;5128178;27;45458;-76
2021/08/02 09:59:14;;;;;;;;;5.33;5.00;;;;;;;;5128007;27;45221;-76
2021/08/02 10:01:41;;;;;;;;;6.00;6.00;;;;;;;;5127205;27;45874;-75
2021/08/02 10:04:06;;;;;;;;;4.33;3.33;;;;;;;;5127200;27;46547;-76
2021/08/02 10:06:32;;;;;;;;;5.00;5.00;;;;;;;;5127617;27;45206;-75
2021/08/02 10:08:59;;;;;;;;;7.00;6.67;;;;;;;;5126548;27;45141;-75
2021/08/02 10:11:24;;;;;;;;;6.33;6.33;;;;;;;;5126154;27;45572;-75
2021/08/02 10:13:49;;;;;;;;;6.00;6.00;;;;;;;;5123434;27;47102;-75
2021/08/02 10:16:15;;;;;;;;;6.00;4.67;;;;;;;;5123123;27;45360;-75
2021/08/02 10:18:47;;;;;;;;;6.00;6.00;;;;;;;;5123699;27;45314;-75
2021/08/02 10:21:12;;;;;;;;;4.00;3.33;;;;;;;;5125607;27;45225;-76
2021/08/02 10:23:38;;;;;;;;;3.00;3.00;;;;;;;;5128256;27;45208;-76
2021/08/02 10:26:03;;;;;;;;;10.33;10.33;;;;;;;;5129180;27;45242;-75
2021/08/02 10:28:28;;;;;;;;;13.33;12.67;;;;;;;;5124705;27;45687;-75
2021/08/02 10:31:04;;;;;;;;;8.00;6.00;;;;;;;;5138275;27;45481;-75
2021/08/02 10:33:34;;;;;;;;;5.00;4.67;;;;;;;;5147816;27;45318;-75
2021/08/02 10:36:10;;;;;;;;;4.00;4.00;;;;;;;;5142757;27;45537;-76
2021/08/02 10:38:39;;;;;;;;;5.00;5.00;;;;;;;;5145175;27;45159;-76
2021/08/02 10:41:04;;;;;;;;;6.67;5.67;;;;;;;;5144138;27;46173;-76
2021/08/02 10:43:32;;;;;;;;;4.33;4.33;;;;;;;;5144152;27;45347;-75
2021/08/02 10:45:58;;;;;;;;;3.00;3.00;;;;;;;;5145603;27;45319;-75
2021/08/02 10:48:25;;;;;;;;;3.67;3.67;;;;;;;;5143579;27;45302;-76
2021/08/02 10:50:50;;;;;;;;;8.67;5.67;;;;;;;;5144762;27;45517;-75
2021/08/02 10:53:19;;;;;;;;;7.00;7.00;;;;;;;;5147293;27;45271;-75
2021/08/02 10:55:45;;;;;;;;;6.00;5.00;;;;;;;;5147897;27;45335;-75
2021/08/02 10:58:10;;;;;;;;;5.00;4.33;;;;;;;;5146447;27;45402;-77
2021/08/02 11:00:36;;;;;;;;;2.00;2.00;;;;;;;;5145193;27;45384;-75
2021/08/02 11:03:03;;;;;;;;;4.67;4.67;;;;;;;;5146342;27;45323;-75
2021/08/02 11:05:29;;;;;;;;;3.67;3.67;;;;;;;;5145587;27;45321;-75
2021/08/02 11:08:00;;;;;;;;;4.67;3.33;;;;;;;;5144675;27;45219;-75
2021/08/02 11:10:26;;;;;;;;;4.00;4.00;;;;;;;;5145245;27;45421;-76
2021/08/02 11:12:51;;;;;;;;;4.33;4.00;;;;;;;;5143527;27;46200;-75
2021/08/02 11:15:16;;;;;;;;;3.00;3.00;;;;;;;;5142539;27;45262;-75
2021/08/02 11:17:51;;;;;;;;;5.00;4.00;;;;;;;;5144259;27;45308;-75
2021/08/02 11:20:17;;;;;;;;;3.00;3.00;;;;;;;;5144039;27;45446;-75
2021/08/02 11:22:52;;;;;;;;;1.00;1.00;;;;;;;;5145771;27;45283;-75
2021/08/02 11:25:32;;;;;;;;;4.00;4.00;;;;;;;;5147455;27;45284;-76
2021/08/02 11:27:59;;;;;;;;;2.33;2.33;;;;;;;;5144994;27;45295;-75
2021/08/02 11:30:25;;;;;;;;;1.00;1.00;;;;;;;;5133823;27;45301;-75
2021/08/02 11:32:51;;;;;;;;;4.00;4.00;;;;;;;;5121702;27;45508;-76
2021/08/02 11:35:17;;;;;;;;;3.33;3.33;;;;;;;;5120243;27;45328;-76
2021/08/02 11:37:50;;;;;;;;;20.00;18.33;;;;;;;;5122860;27;45415;-75
2021/08/02 11:40:15;;;;;;;;;10.33;9.00;;;;;;;;5123987;27;46789;-75
2021/08/02 11:42:42;;;;;;;;;12.00;12.00;;;;;;;;5121970;27;46144;-76
2021/08/02 11:45:08;;;;;;;;;12.67;12.33;;;;;;;;5122749;27;45312;-75
2021/08/02 11:47:41;;;;;;;;;3.00;3.00;;;;;;;;5125923;27;44708;-75
2021/08/02 11:50:07;;;;;;;;;9.67;9.00;;;;;;;;5123110;27;45319;-75
2021/08/02 11:52:32;;;;;;;;;6.67;6.67;;;;;;;;5122431;27;46256;-75
2021/08/02 11:54:58;;;;;;;;;17.33;14.67;;;;;;;;5122831;27;45291;-75
2021/08/02 11:57:23;;;;;;;;;2.00;2.00;;;;;;;;5125952;27;45305;-75
2021/08/02 11:59:55;;;;;;;;;2.00;1.33;;;;;;;;5122575;27;45309;-75
2021/08/02 12:02:33;;;;;;;;;4.67;4.67;;;;;;;;5126442;27;47291;-76
2021/08/02 12:04:58;;;;;;;;;3.67;3.67;;;;;;;;5123361;27;45315;-76
2021/08/02 12:07:24;;;;;;;;;3.33;3.33;;;;;;;;5122616;27;45295;-75
2021/08/02 12:09:49;;;;;;;;;0.00;0.00;;;;;;;;5125539;27;45211;-76
2021/08/02 12:12:20;;;;;;;;;3.00;3.00;;;;;;;;5123467;27;45250;-76
2021/08/02 12:14:45;;;;;;;;;2.00;2.00;;;;;;;;5125730;27;45456;-76
2021/08/02 12:17:10;;;;;;;;;1.33;1.33;;;;;;;;5121499;27;45435;-75
2021/08/02 12:19:49;;;;;;;;;2.67;2.00;;;;;;;;5121546;27;45264;-75
2021/08/02 12:22:15;;;;;;;;;2.00;2.00;;;;;;;;5121960;27;46028;-75
2021/08/02 12:24:47;;;;;;;;;1.00;1.00;;;;;;;;5121795;27;45235;-75
2021/08/02 12:27:14;;;;;;;;;4.00;4.00;;;;;;;;5121375;27;45302;-75
2021/08/02 12:29:40;;;;;;;;;2.00;2.00;;;;;;;;5124423;27;45354;-76
2021/08/02 12:32:05;;;;;;;;;3.33;3.33;;;;;;;;5142051;27;46602;-75
2021/08/02 12:34:30;;;;;;;;;2.00;2.00;;;;;;;;5143882;27;45202;-75
2021/08/02 12:36:57;;;;;;;;;2.33;2.33;;;;;;;;5141961;27;45141;-75
2021/08/02 12:39:24;;;;;;;;;3.00;3.00;;;;;;;;5142912;27;45234;-76
2021/08/02 12:41:49;;;;;;;;;3.00;3.00;;;;;;;;5142719;27;45442;-75
2021/08/02 12:44:14;;;;;;;;;6.00;4.00;;;;;;;;5143012;27;45326;-75
2021/08/02 12:46:40;;;;;;;;;1.00;1.00;;;;;;;;5141821;27;45336;-75
2021/08/02 12:49:05;;;;;;;;;2.33;2.33;;;;;;;;5142481;27;45582;-75
2021/08/02 12:51:30;;;;;;;;;4.00;4.00;;;;;;;;5140411;27;47383;-75
2021/08/02 12:53:55;;;;;;;;;4.00;3.00;;;;;;;;5142726;27;45205;-76
2021/08/02 12:56:20;;;;;;;;;2.00;2.00;;;;;;;;5145694;27;45322;-75
2021/08/02 12:58:46;;;;;;;;;3.67;3.00;;;;;;;;5142977;27;45279;-76
2021/08/02 13:01:11;;;;;;;;;3.00;3.00;;;;;;;;5141165;27;47173;-76
2021/08/02 13:03:38;;;;;;;;;8.00;7.00;;;;;;;;5141470;27;45259;-75
2021/08/02 13:06:03;;;;;;;;;3.67;3.67;;;;;;;;5141675;27;45313;-75
2021/08/02 13:08:28;;;;;;;;;19.33;19.00;;;;;;;;5140853;27;45280;-76
2021/08/02 13:10:54;;;;;;;;;2.00;2.00;;;;;;;;5145138;27;46598;-75
2021/08/02 13:13:19;;;;;;;;;2.00;2.00;;;;;;;;5145868;27;45310;-76
2021/08/02 13:15:44;;;;;;;;;1.00;1.00;;;;;;;;5141900;27;45306;-75
2021/08/02 13:18:09;;;;;;;;;9.67;9.00;;;;;;;;5142687;27;45230;-76
2021/08/02 13:20:34;;;;;;;;;6.00;5.00;;;;;;;;5145340;27;46168;-75
2021/08/02 13:23:06;;;;;;;;;2.33;1.00;;;;;;;;5141347;27;45280;-76
2021/08/02 13:28:15;;;;;;;;;4.00;4.00;;;;;;;;5145653;27;45318;-75
2021/08/02 13:30:41;;;;;;;;;3.00;3.00;;;;;;;;5132784;27;45941;-76
2021/08/02 13:33:06;;;;;;;;;6.67;6.67;;;;;;;;5125342;27;45242;-75
2021/08/02 13:35:31;;;;;;;;;6.33;6.33;;;;;;;;5126928;27;45240;-75
2021/08/02 13:37:56;;;;;;;;;8.00;5.67;;;;;;;;5124105;27;45383;-76
2021/08/02 13:40:22;;;;;;;;;2.00;2.00;;;;;;;;5123588;27;46457;-76
2021/08/02 13:42:48;;;;;;;;;1.67;1.67;;;;;;;;5123502;27;45310;-75
2021/08/02 13:45:14;;;;;;;;;3.00;3.00;;;;;;;;5124032;27;45393;-76
2021/08/02 13:47:39;;;;;;;;;2.67;2.33;;;;;;;;5127278;27;45269;-75
2021/08/02 13:50:05;;;;;;;;;7.33;7.33;;;;;;;;5127783;27;45453;-75
2021/08/02 13:52:30;;;;;;;;;10.33;10.33;;;;;;;;5123965;27;46179;-76
2021/08/02 13:54:55;;;;;;;;;48.25;41.00;;;;;;;;5126294;27;45235;-75
2021/08/02 13:57:20;;;;;;;;;51.00;42.00;;;;;;;;5123146;27;45229;-75
2021/08/02 13:59:45;;;;;;;;;26.33;25.33;;;;;;;;5123731;27;45430;-75
2021/08/02 14:02:11;;;;;;;;;14.33;13.00;;;;;;;;5123275;27;45888;-75
2021/08/02 14:04:37;;;;;;;;;4.33;4.33;;;;;;;;5127077;27;45292;-77
2021/08/02 14:07:02;;;;;;;;;5.00;5.00;;;;;;;;5129900;27;45290;-75
2021/08/02 14:09:27;;;;;;;;;5.67;5.00;;;;;;;;5128793;27;45727;-76
2021/08/02 14:11:55;;;;;;;;;5.67;5.67;;;;;;;;5129042;27;45194;-76
2021/08/02 14:14:20;;;;;;;;;3.67;2.00;;;;;;;;5128724;27;45312;-76
2021/08/02 14:16:56;;;;;;;;;6.00;5.00;;;;;;;;5127295;27;45224;-76
2021/08/02 14:19:26;;;;;;;;;4.00;3.33;;;;;;;;5124194;27;45993;-77
2021/08/02 14:21:52;;;;;;;;;6.00;5.00;;;;;;;;5124608;27;45329;-78
2021/08/02 14:24:17;;;;;;;;;2.33;2.33;;;;;;;;5133510;27;44692;-79
2021/08/02 14:26:42;;;;;;;;;3.00;3.00;;;;;;;;5129522;27;45192;-77
2021/08/02 14:29:07;;;;;;;;;2.67;2.67;;;;;;;;5130359;27;48525;-77
2021/08/02 14:31:33;;;;;;;;;4.00;4.00;;;;;;;;5151388;27;45244;-76
2021/08/02 14:33:58;;;;;;;;;3.67;3.67;;;;;;;;5154949;27;45448;-77
2021/08/02 14:36:25;;;;;;;;;2.67;2.67;;;;;;;;5161708;27;45153;-76
2021/08/02 14:38:54;;;;;;;;;3.67;3.67;;;;;;;;5158677;27;46216;-76
2021/08/02 14:41:39;;;;;;;;;2.00;2.00;;;;;;;;5160008;27;46053;-76